DAL1454 KDTW-KDCA
Flight info
| Callsign | DAL1454 |
|---|---|
| Flight time | 1h 6m |
| Altitude | 37000 |
| Route | LIDDS4 GRIVY BUCKO FRDMM6 |
| Aircraft | A20N/M-SDE2E3FGHIRWXY/LB1 |
Departure
| Time | 2026-05-05 14:14 |
|---|---|
| Airport | Detroit Metropolitan Wayne County Airport (KDTW) |
Arrival
| Time | 2026-05-05 15:20 |
|---|---|
| Airport | Ronald Reagan Washington National Airport (KDCA) |
| Time | Latitude | Longitude | Altitude | Speed | Heading |
|---|---|---|---|---|---|
| 2026-05-05 13:44 | 42.20836 | -83.36313 | 649 ft | 0 kts | 118° |
| 2026-05-05 14:02 | 42.20838 | -83.36318 | 649 ft | 3 kts | 117° |
| 2026-05-05 14:03 | 42.20846 | -83.36351 | 631 ft | 4 kts | 91° |
| 2026-05-05 14:03 | 42.20842 | -83.36386 | 649 ft | 4 kts | 61° |
| 2026-05-05 14:03 | 42.20826 | -83.36412 | 652 ft | 3 kts | 31° |
| 2026-05-05 14:03 | 42.20823 | -83.36415 | 651 ft | 1 kts | 29° |
| 2026-05-05 14:07 | 42.20824 | -83.36414 | 651 ft | 1 kts | 29° |
| 2026-05-05 14:07 | 42.20848 | -83.36394 | 654 ft | 7 kts | 35° |
| 2026-05-05 14:07 | 42.20910 | -83.36337 | 650 ft | 15 kts | 30° |
| 2026-05-05 14:07 | 42.21025 | -83.36252 | 649 ft | 20 kts | 28° |
| 2026-05-05 14:08 | 42.21131 | -83.36183 | 650 ft | 13 kts | 21° |
| 2026-05-05 14:08 | 42.21231 | -83.36115 | 649 ft | 21 kts | 28° |
| 2026-05-05 14:08 | 42.21375 | -83.36009 | 649 ft | 23 kts | 30° |
| 2026-05-05 14:08 | 42.21522 | -83.35900 | 649 ft | 22 kts | 33° |
| 2026-05-05 14:09 | 42.21544 | -83.35753 | 649 ft | 18 kts | 85° |
| 2026-05-05 14:09 | 42.21547 | -83.35557 | 649 ft | 24 kts | 90° |
| 2026-05-05 14:09 | 42.21551 | -83.35306 | 649 ft | 20 kts | 88° |
| 2026-05-05 14:09 | 42.21556 | -83.35106 | 649 ft | 21 kts | 77° |
| 2026-05-05 14:10 | 42.21640 | -83.34978 | 649 ft | 19 kts | 44° |
| 2026-05-05 14:10 | 42.21740 | -83.34849 | 651 ft | 21 kts | 43° |
| 2026-05-05 14:10 | 42.21831 | -83.34706 | 650 ft | 11 kts | 89° |
| 2026-05-05 14:10 | 42.21835 | -83.34579 | 650 ft | 18 kts | 86° |
| 2026-05-05 14:11 | 42.21920 | -83.34454 | 651 ft | 22 kts | 29° |
| 2026-05-05 14:11 | 42.22065 | -83.34348 | 650 ft | 25 kts | 28° |
| 2026-05-05 14:11 | 42.22228 | -83.34231 | 649 ft | 23 kts | 28° |
| 2026-05-05 14:11 | 42.22369 | -83.34122 | 650 ft | 25 kts | 27° |
| 2026-05-05 14:12 | 42.22532 | -83.34004 | 650 ft | 29 kts | 28° |
| 2026-05-05 14:12 | 42.22725 | -83.33866 | 651 ft | 33 kts | 27° |
| 2026-05-05 14:12 | 42.22849 | -83.33726 | 649 ft | 15 kts | 92° |
| 2026-05-05 14:12 | 42.22772 | -83.33662 | 650 ft | 16 kts | 199° |
| 2026-05-05 14:13 | 42.22680 | -83.33728 | 651 ft | 15 kts | 209° |
| 2026-05-05 14:13 | 42.22438 | -83.33910 | 651 ft | 73 kts | 209° |
| 2026-05-05 14:13 | 42.21817 | -83.34370 | 650 ft | 127 kts | 208° |
| 2026-05-05 14:13 | 42.20936 | -83.35006 | 889 ft | 148 kts | 212° |
| 2026-05-05 14:14 | 42.20038 | -83.35649 | 1533 ft | 146 kts | 213° |
| 2026-05-05 14:14 | 42.19097 | -83.36212 | 2101 ft | 150 kts | 201° |
| 2026-05-05 14:14 | 42.17998 | -83.36439 | 2469 ft | 177 kts | 189° |
| 2026-05-05 14:14 | 42.16670 | -83.36496 | 2931 ft | 205 kts | 185° |
| 2026-05-05 14:15 | 42.15150 | -83.36393 | 3510 ft | 230 kts | 181° |
| 2026-05-05 14:15 | 42.13486 | -83.36188 | 4243 ft | 248 kts | 181° |
| 2026-05-05 14:15 | 42.11724 | -83.35992 | 5098 ft | 259 kts | 182° |
| 2026-05-05 14:15 | 42.09938 | -83.35834 | 6079 ft | 262 kts | 183° |
| 2026-05-05 14:16 | 42.08105 | -83.35704 | 6589 ft | 265 kts | 184° |
| 2026-05-05 14:16 | 42.06263 | -83.35530 | 6850 ft | 269 kts | 176° |
| 2026-05-05 14:16 | 42.04514 | -83.34498 | 6976 ft | 286 kts | 149° |
| 2026-05-05 14:16 | 42.03191 | -83.32424 | 7002 ft | 301 kts | 123° |
| 2026-05-05 14:17 | 42.02528 | -83.29717 | 6986 ft | 309 kts | 105° |
| 2026-05-05 14:17 | 42.02191 | -83.26865 | 6986 ft | 309 kts | 101° |
| 2026-05-05 14:17 | 42.01906 | -83.23991 | 6991 ft | 310 kts | 101° |
| 2026-05-05 14:17 | 42.01582 | -83.21123 | 6986 ft | 310 kts | 102° |
| 2026-05-05 14:18 | 42.01452 | -83.18187 | 7136 ft | 317 kts | 88° |
| 2026-05-05 14:18 | 42.01798 | -83.15245 | 7639 ft | 322 kts | 80° |
| 2026-05-05 14:18 | 42.02228 | -83.12265 | 8425 ft | 326 kts | 81° |
| 2026-05-05 14:18 | 42.02643 | -83.09273 | 8792 ft | 326 kts | 83° |
| 2026-05-05 14:19 | 42.03032 | -83.06295 | 9079 ft | 320 kts | 82° |
| 2026-05-05 14:19 | 42.03414 | -83.03329 | 9342 ft | 326 kts | 82° |
| 2026-05-05 14:19 | 42.03810 | -83.00326 | 9627 ft | 327 kts | 82° |
| 2026-05-05 14:19 | 42.04214 | -82.97310 | 9892 ft | 328 kts | 82° |
| 2026-05-05 14:20 | 42.04622 | -82.94268 | 10162 ft | 340 kts | 82° |
| 2026-05-05 14:20 | 42.05053 | -82.91014 | 10440 ft | 367 kts | 82° |
| 2026-05-05 14:20 | 42.05512 | -82.87558 | 10714 ft | 378 kts | 82° |
| 2026-05-05 14:20 | 42.05971 | -82.84108 | 10978 ft | 380 kts | 81° |
| 2026-05-05 14:21 | 42.06438 | -82.80591 | 11258 ft | 382 kts | 81° |
| 2026-05-05 14:21 | 42.06902 | -82.77057 | 11523 ft | 382 kts | 83° |
| 2026-05-05 14:21 | 42.07066 | -82.73503 | 11799 ft | 380 kts | 95° |
| 2026-05-05 14:21 | 42.06717 | -82.69980 | 12080 ft | 378 kts | 107° |
| 2026-05-05 14:22 | 42.06065 | -82.66551 | 12363 ft | 379 kts | 108° |
| 2026-05-05 14:22 | 42.05417 | -82.63102 | 12646 ft | 381 kts | 108° |
| 2026-05-05 14:22 | 42.04770 | -82.59639 | 12935 ft | 382 kts | 108° |
| 2026-05-05 14:22 | 42.04122 | -82.56157 | 13223 ft | 384 kts | 108° |
| 2026-05-05 14:23 | 42.03479 | -82.52712 | 13506 ft | 386 kts | 108° |
| 2026-05-05 14:23 | 42.02824 | -82.49202 | 13782 ft | 388 kts | 108° |
| 2026-05-05 14:23 | 42.02176 | -82.45665 | 14041 ft | 390 kts | 107° |
| 2026-05-05 14:23 | 42.01531 | -82.42114 | 14310 ft | 392 kts | 107° |
| 2026-05-05 14:24 | 42.00881 | -82.38546 | 14566 ft | 394 kts | 107° |
| 2026-05-05 14:24 | 42.00222 | -82.34944 | 14833 ft | 396 kts | 107° |
| 2026-05-05 14:24 | 41.99561 | -82.31340 | 15106 ft | 398 kts | 108° |
| 2026-05-05 14:24 | 41.98894 | -82.27717 | 15376 ft | 400 kts | 108° |
| 2026-05-05 14:25 | 41.98223 | -82.24080 | 15652 ft | 402 kts | 108° |
| 2026-05-05 14:25 | 41.97547 | -82.20424 | 15932 ft | 404 kts | 108° |
| 2026-05-05 14:25 | 41.96867 | -82.16751 | 16211 ft | 406 kts | 108° |
| 2026-05-05 14:25 | 41.96189 | -82.13109 | 16492 ft | 407 kts | 109° |
| 2026-05-05 14:26 | 41.95141 | -82.09615 | 16779 ft | 401 kts | 126° |
| 2026-05-05 14:26 | 41.93452 | -82.06703 | 17071 ft | 391 kts | 143° |
| 2026-05-05 14:26 | 41.91359 | -82.04407 | 17344 ft | 389 kts | 148° |
| 2026-05-05 14:26 | 41.89217 | -82.02167 | 17637 ft | 391 kts | 148° |
| 2026-05-05 14:27 | 41.87064 | -81.99912 | 17936 ft | 393 kts | 148° |
| 2026-05-05 14:27 | 41.84897 | -81.97640 | 18214 ft | 396 kts | 148° |
| 2026-05-05 14:27 | 41.82720 | -81.95358 | 18477 ft | 399 kts | 148° |
| 2026-05-05 14:27 | 41.80514 | -81.93046 | 19068 ft | 403 kts | 148° |
| 2026-05-05 14:28 | 41.78289 | -81.90716 | 19687 ft | 409 kts | 148° |
| 2026-05-05 14:28 | 41.76052 | -81.88374 | 20268 ft | 414 kts | 148° |
| 2026-05-05 14:28 | 41.73766 | -81.85984 | 20862 ft | 420 kts | 148° |
| 2026-05-05 14:28 | 41.71446 | -81.83559 | 21440 ft | 425 kts | 148° |
| 2026-05-05 14:29 | 41.69094 | -81.81119 | 21993 ft | 430 kts | 149° |
| 2026-05-05 14:29 | 41.66666 | -81.78714 | 22561 ft | 434 kts | 150° |
| 2026-05-05 14:29 | 41.64233 | -81.76356 | 23132 ft | 439 kts | 150° |
| 2026-05-05 14:29 | 41.61745 | -81.73947 | 23632 ft | 444 kts | 150° |
| 2026-05-05 14:30 | 41.59235 | -81.71509 | 24143 ft | 448 kts | 150° |
| 2026-05-05 14:30 | 41.56700 | -81.69038 | 24643 ft | 452 kts | 150° |
| 2026-05-05 14:30 | 41.54153 | -81.66553 | 25135 ft | 455 kts | 150° |
| 2026-05-05 14:30 | 41.51587 | -81.64052 | 25611 ft | 458 kts | 149° |
| 2026-05-05 14:31 | 41.49002 | -81.61532 | 26076 ft | 462 kts | 150° |
| 2026-05-05 14:31 | 41.47277 | -81.59851 | 26385 ft | 465 kts | 150° |
| 2026-05-05 14:31 | 41.43794 | -81.56462 | 26947 ft | 470 kts | 149° |
| 2026-05-05 14:31 | 41.41143 | -81.53885 | 27407 ft | 473 kts | 150° |
| 2026-05-05 14:32 | 41.38472 | -81.51293 | 27842 ft | 476 kts | 150° |
| 2026-05-05 14:32 | 41.36657 | -81.49533 | 28124 ft | 479 kts | 150° |
| 2026-05-05 14:32 | 41.33955 | -81.46914 | 28534 ft | 482 kts | 150° |
| 2026-05-05 14:32 | 41.31236 | -81.44282 | 28926 ft | 485 kts | 150° |
| 2026-05-05 14:33 | 41.28532 | -81.41667 | 29301 ft | 488 kts | 150° |
| 2026-05-05 14:33 | 41.25772 | -81.39001 | 29688 ft | 491 kts | 150° |
| 2026-05-05 14:33 | 41.22995 | -81.36322 | 30005 ft | 494 kts | 150° |
| 2026-05-05 14:33 | 41.20198 | -81.33627 | 30307 ft | 498 kts | 150° |
| 2026-05-05 14:34 | 41.17383 | -81.30916 | 30639 ft | 501 kts | 150° |
| 2026-05-05 14:34 | 41.14551 | -81.28191 | 30956 ft | 504 kts | 150° |
| 2026-05-05 14:34 | 41.11710 | -81.25462 | 31375 ft | 504 kts | 150° |
| 2026-05-05 14:34 | 41.08869 | -81.22733 | 31768 ft | 505 kts | 151° |
| 2026-05-05 14:35 | 41.05932 | -81.20211 | 32148 ft | 501 kts | 156° |
| 2026-05-05 14:35 | 41.02984 | -81.17850 | 32513 ft | 502 kts | 156° |
| 2026-05-05 14:35 | 40.99994 | -81.15452 | 32862 ft | 502 kts | 157° |
| 2026-05-05 14:35 | 40.96990 | -81.13043 | 33144 ft | 505 kts | 157° |
| 2026-05-05 14:36 | 40.93984 | -81.10632 | 33503 ft | 505 kts | 157° |
| 2026-05-05 14:36 | 40.90976 | -81.08220 | 33878 ft | 506 kts | 157° |
| 2026-05-05 14:36 | 40.87970 | -81.05813 | 34239 ft | 504 kts | 157° |
| 2026-05-05 14:36 | 40.84977 | -81.03419 | 34646 ft | 502 kts | 157° |
| 2026-05-05 14:37 | 40.81990 | -81.01033 | 35033 ft | 500 kts | 157° |
| 2026-05-05 14:37 | 40.79019 | -80.98665 | 35404 ft | 498 kts | 157° |
| 2026-05-05 14:37 | 40.76056 | -80.96307 | 35681 ft | 498 kts | 156° |
| 2026-05-05 14:37 | 40.73075 | -80.93941 | 35934 ft | 499 kts | 156° |
| 2026-05-05 14:38 | 40.70106 | -80.91583 | 36296 ft | 497 kts | 156° |
| 2026-05-05 14:38 | 40.67146 | -80.89236 | 36658 ft | 495 kts | 156° |
| 2026-05-05 14:38 | 40.64202 | -80.86901 | 36817 ft | 493 kts | 156° |
| 2026-05-05 14:38 | 40.61307 | -80.84608 | 36850 ft | 492 kts | 156° |
| 2026-05-05 14:39 | 40.55443 | -80.79971 | 36856 ft | 492 kts | 156° |
| 2026-05-05 14:39 | 40.49573 | -80.75339 | 36861 ft | 492 kts | 156° |
| 2026-05-05 14:40 | 40.43696 | -80.70711 | 36867 ft | 492 kts | 156° |
| 2026-05-05 14:40 | 40.37857 | -80.66120 | 36872 ft | 492 kts | 156° |
| 2026-05-05 14:41 | 40.31979 | -80.61508 | 36875 ft | 492 kts | 156° |
| 2026-05-05 14:41 | 40.26092 | -80.56899 | 36900 ft | 493 kts | 156° |
| 2026-05-05 14:42 | 40.20205 | -80.52284 | 36897 ft | 492 kts | 156° |
| 2026-05-05 14:42 | 40.14334 | -80.47721 | 36907 ft | 490 kts | 156° |
| 2026-05-05 14:43 | 40.08462 | -80.43161 | 36912 ft | 490 kts | 156° |
| 2026-05-05 14:43 | 40.02626 | -80.38633 | 36888 ft | 492 kts | 155° |
| 2026-05-05 14:44 | 39.96745 | -80.34074 | 36892 ft | 491 kts | 155° |
| 2026-05-05 14:44 | 39.90871 | -80.29530 | 36895 ft | 491 kts | 155° |
| 2026-05-05 14:45 | 39.84997 | -80.24995 | 36909 ft | 490 kts | 155° |
| 2026-05-05 14:45 | 39.79121 | -80.20471 | 36905 ft | 491 kts | 155° |
| 2026-05-05 14:46 | 39.73275 | -80.15977 | 36929 ft | 492 kts | 155° |
| 2026-05-05 14:46 | 39.67308 | -80.11404 | 36943 ft | 500 kts | 155° |
| 2026-05-05 14:47 | 39.61324 | -80.06818 | 36948 ft | 499 kts | 155° |
| 2026-05-05 14:47 | 39.55321 | -80.02233 | 36948 ft | 503 kts | 154° |
| 2026-05-05 14:48 | 39.49293 | -79.97634 | 36629 ft | 502 kts | 155° |
| 2026-05-05 14:48 | 39.46280 | -79.95338 | 36005 ft | 503 kts | 155° |
| 2026-05-05 14:48 | 39.43296 | -79.93070 | 35228 ft | 506 kts | 155° |
| 2026-05-05 14:49 | 39.40209 | -79.90726 | 34308 ft | 510 kts | 155° |
| 2026-05-05 14:49 | 39.37125 | -79.88388 | 33308 ft | 515 kts | 155° |
| 2026-05-05 14:49 | 39.34126 | -79.85959 | 32454 ft | 517 kts | 147° |
| 2026-05-05 14:49 | 39.31434 | -79.82875 | 31634 ft | 515 kts | 135° |
| 2026-05-05 14:50 | 39.29238 | -79.79247 | 30609 ft | 512 kts | 123° |
| 2026-05-05 14:50 | 39.27617 | -79.75181 | 29540 ft | 506 kts | 111° |
| 2026-05-05 14:50 | 39.26674 | -79.70870 | 28805 ft | 492 kts | 99° |
| 2026-05-05 14:50 | 39.26440 | -79.66533 | 28435 ft | 478 kts | 86° |
| 2026-05-05 14:51 | 39.26706 | -79.62309 | 28214 ft | 472 kts | 83° |
| 2026-05-05 14:51 | 39.26925 | -79.58047 | 27984 ft | 477 kts | 87° |
| 2026-05-05 14:51 | 39.26920 | -79.53771 | 27584 ft | 475 kts | 91° |
| 2026-05-05 14:51 | 39.26728 | -79.49522 | 27172 ft | 471 kts | 94° |
| 2026-05-05 14:52 | 39.26437 | -79.45333 | 26773 ft | 467 kts | 95° |
| 2026-05-05 14:52 | 39.26103 | -79.41181 | 26362 ft | 464 kts | 96° |
| 2026-05-05 14:52 | 39.25762 | -79.37102 | 25895 ft | 459 kts | 96° |
| 2026-05-05 14:52 | 39.25421 | -79.33047 | 25581 ft | 449 kts | 96° |
| 2026-05-05 14:53 | 39.25086 | -79.29049 | 25105 ft | 444 kts | 96° |
| 2026-05-05 14:53 | 39.24760 | -79.25138 | 24724 ft | 436 kts | 96° |
| 2026-05-05 14:53 | 39.24437 | -79.21274 | 24345 ft | 430 kts | 96° |
| 2026-05-05 14:53 | 39.24113 | -79.17438 | 23963 ft | 430 kts | 96° |
| 2026-05-05 14:54 | 39.23786 | -79.13607 | 23592 ft | 429 kts | 96° |
| 2026-05-05 14:54 | 39.23461 | -79.09797 | 23185 ft | 425 kts | 97° |
| 2026-05-05 14:54 | 39.23137 | -79.06014 | 22811 ft | 422 kts | 97° |
| 2026-05-05 14:54 | 39.22817 | -79.02313 | 22452 ft | 420 kts | 96° |
| 2026-05-05 14:55 | 39.22495 | -78.98577 | 22100 ft | 418 kts | 97° |
| 2026-05-05 14:55 | 39.22172 | -78.94854 | 21956 ft | 416 kts | 97° |
| 2026-05-05 14:55 | 39.21823 | -78.91141 | 21889 ft | 418 kts | 97° |
| 2026-05-05 14:55 | 39.21460 | -78.87429 | 21800 ft | 417 kts | 97° |
| 2026-05-05 14:56 | 39.21095 | -78.83720 | 21720 ft | 416 kts | 97° |
| 2026-05-05 14:56 | 39.20731 | -78.80011 | 21644 ft | 416 kts | 97° |
| 2026-05-05 14:56 | 39.20369 | -78.76309 | 21564 ft | 416 kts | 97° |
| 2026-05-05 14:56 | 39.20006 | -78.72602 | 21495 ft | 415 kts | 97° |
| 2026-05-05 14:57 | 39.19645 | -78.68918 | 21411 ft | 414 kts | 97° |
| 2026-05-05 14:57 | 39.19281 | -78.65232 | 21328 ft | 415 kts | 97° |
| 2026-05-05 14:57 | 39.18917 | -78.61544 | 21252 ft | 415 kts | 97° |
| 2026-05-05 14:57 | 39.18556 | -78.57896 | 21179 ft | 414 kts | 97° |
| 2026-05-05 14:58 | 39.18191 | -78.54214 | 21096 ft | 413 kts | 97° |
| 2026-05-05 14:58 | 39.17826 | -78.50541 | 20984 ft | 412 kts | 97° |
| 2026-05-05 14:58 | 39.17461 | -78.46887 | 20292 ft | 411 kts | 98° |
| 2026-05-05 14:58 | 39.17096 | -78.43243 | 19540 ft | 409 kts | 98° |
| 2026-05-05 14:59 | 39.16731 | -78.39612 | 18785 ft | 405 kts | 98° |
| 2026-05-05 14:59 | 39.16258 | -78.36058 | 17964 ft | 400 kts | 106° |
| 2026-05-05 14:59 | 39.15453 | -78.32660 | 17155 ft | 394 kts | 110° |
| 2026-05-05 14:59 | 39.14618 | -78.29321 | 16358 ft | 389 kts | 110° |
| 2026-05-05 15:00 | 39.13797 | -78.26007 | 15582 ft | 384 kts | 111° |
| 2026-05-05 15:00 | 39.13262 | -78.23843 | 15078 ft | 381 kts | 111° |
| 2026-05-05 15:00 | 39.12205 | -78.19574 | 14634 ft | 372 kts | 111° |
| 2026-05-05 15:00 | 39.11418 | -78.16416 | 14344 ft | 376 kts | 112° |
| 2026-05-05 15:01 | 39.10625 | -78.13233 | 14080 ft | 369 kts | 112° |
| 2026-05-05 15:01 | 39.09845 | -78.10106 | 13988 ft | 366 kts | 112° |
| 2026-05-05 15:01 | 39.09054 | -78.06994 | 13761 ft | 366 kts | 112° |
| 2026-05-05 15:01 | 39.08256 | -78.03880 | 13332 ft | 365 kts | 112° |
| 2026-05-05 15:02 | 39.07478 | -78.00839 | 13162 ft | 349 kts | 113° |
| 2026-05-05 15:02 | 39.06742 | -77.97946 | 12870 ft | 334 kts | 113° |
| 2026-05-05 15:02 | 39.06020 | -77.95130 | 12321 ft | 331 kts | 114° |
| 2026-05-05 15:02 | 39.05301 | -77.92341 | 12022 ft | 325 kts | 114° |
| 2026-05-05 15:03 | 39.04599 | -77.89608 | 11758 ft | 319 kts | 114° |
| 2026-05-05 15:03 | 39.03895 | -77.86882 | 11495 ft | 321 kts | 114° |
| 2026-05-05 15:03 | 39.03195 | -77.84169 | 11236 ft | 318 kts | 114° |
| 2026-05-05 15:03 | 39.02498 | -77.81465 | 10986 ft | 317 kts | 114° |
| 2026-05-05 15:04 | 39.01804 | -77.78774 | 10741 ft | 316 kts | 114° |
| 2026-05-05 15:04 | 39.01115 | -77.76103 | 10490 ft | 315 kts | 115° |
| 2026-05-05 15:04 | 39.00436 | -77.73475 | 10229 ft | 313 kts | 115° |
| 2026-05-05 15:04 | 38.99749 | -77.70821 | 9983 ft | 312 kts | 115° |
| 2026-05-05 15:05 | 38.98373 | -77.65550 | 9463 ft | 308 kts | 117° |
| 2026-05-05 15:05 | 38.97515 | -77.63049 | 9207 ft | 305 kts | 121° |
| 2026-05-05 15:05 | 38.96639 | -77.60578 | 8958 ft | 304 kts | 121° |
| 2026-05-05 15:06 | 38.95769 | -77.58108 | 8687 ft | 301 kts | 121° |
| 2026-05-05 15:06 | 38.94908 | -77.55661 | 8432 ft | 300 kts | 121° |
| 2026-05-05 15:06 | 38.94050 | -77.53222 | 8195 ft | 297 kts | 121° |
| 2026-05-05 15:06 | 38.93198 | -77.50801 | 8026 ft | 296 kts | 121° |
| 2026-05-05 15:07 | 38.92357 | -77.48420 | 8005 ft | 297 kts | 121° |
| 2026-05-05 15:07 | 38.91494 | -77.45976 | 7935 ft | 296 kts | 121° |
| 2026-05-05 15:07 | 38.90564 | -77.43645 | 7649 ft | 292 kts | 126° |
| 2026-05-05 15:07 | 38.89587 | -77.41417 | 7298 ft | 290 kts | 125° |
| 2026-05-05 15:08 | 38.88604 | -77.39165 | 6947 ft | 287 kts | 125° |
| 2026-05-05 15:08 | 38.87630 | -77.36929 | 6585 ft | 286 kts | 124° |
| 2026-05-05 15:08 | 38.86664 | -77.34712 | 6225 ft | 284 kts | 124° |
| 2026-05-05 15:08 | 38.85704 | -77.32513 | 5860 ft | 282 kts | 124° |
| 2026-05-05 15:09 | 38.84739 | -77.30308 | 5355 ft | 285 kts | 123° |
| 2026-05-05 15:09 | 38.83759 | -77.28106 | 4954 ft | 284 kts | 123° |
| 2026-05-05 15:09 | 38.82768 | -77.25915 | 4553 ft | 283 kts | 123° |
| 2026-05-05 15:09 | 38.81781 | -77.23733 | 4152 ft | 283 kts | 123° |
| 2026-05-05 15:10 | 38.80796 | -77.21554 | 3734 ft | 283 kts | 122° |
| 2026-05-05 15:10 | 38.79806 | -77.19362 | 3310 ft | 284 kts | 122° |
| 2026-05-05 15:10 | 38.78821 | -77.17179 | 2980 ft | 281 kts | 122° |
| 2026-05-05 15:10 | 38.77858 | -77.15045 | 2647 ft | 278 kts | 122° |
| 2026-05-05 15:11 | 38.76864 | -77.12972 | 2485 ft | 267 kts | 132° |
| 2026-05-05 15:11 | 38.75407 | -77.11557 | 2298 ft | 265 kts | 162° |
| 2026-05-05 15:11 | 38.73606 | -77.11188 | 2521 ft | 264 kts | 181° |
| 2026-05-05 15:11 | 38.71792 | -77.11099 | 2561 ft | 257 kts | 181° |
| 2026-05-05 15:12 | 38.69998 | -77.11016 | 2565 ft | 259 kts | 182° |
| 2026-05-05 15:12 | 38.68208 | -77.10929 | 2563 ft | 257 kts | 181° |
| 2026-05-05 15:12 | 38.66410 | -77.10836 | 2590 ft | 257 kts | 181° |
| 2026-05-05 15:12 | 38.64619 | -77.10739 | 2587 ft | 258 kts | 181° |
| 2026-05-05 15:13 | 38.62830 | -77.10640 | 2579 ft | 258 kts | 181° |
| 2026-05-05 15:13 | 38.61035 | -77.10314 | 2564 ft | 266 kts | 163° |
| 2026-05-05 15:13 | 38.59485 | -77.09000 | 2526 ft | 273 kts | 135° |
| 2026-05-05 15:13 | 38.58555 | -77.06872 | 2530 ft | 280 kts | 107° |
| 2026-05-05 15:14 | 38.58480 | -77.04404 | 2524 ft | 281 kts | 76° |
| 2026-05-05 15:14 | 38.59397 | -77.02293 | 2526 ft | 267 kts | 40° |
| 2026-05-05 15:14 | 38.60888 | -77.01054 | 2520 ft | 247 kts | 20° |
| 2026-05-05 15:14 | 38.62469 | -77.00480 | 2525 ft | 227 kts | 4° |
| 2026-05-05 15:15 | 38.63979 | -77.00305 | 2515 ft | 210 kts | 358° |
| 2026-05-05 15:15 | 38.65392 | -77.00251 | 2537 ft | 195 kts | 355° |
| 2026-05-05 15:15 | 38.66669 | -77.00228 | 2516 ft | 177 kts | 355° |
| 2026-05-05 15:15 | 38.67819 | -77.00287 | 2508 ft | 156 kts | 348° |
| 2026-05-05 15:16 | 38.68862 | -77.00441 | 2448 ft | 150 kts | 344° |
| 2026-05-05 15:16 | 38.69895 | -77.00678 | 2461 ft | 149 kts | 342° |
| 2026-05-05 15:16 | 38.70904 | -77.00976 | 2392 ft | 149 kts | 340° |
| 2026-05-05 15:16 | 38.71902 | -77.01292 | 2360 ft | 150 kts | 340° |
| 2026-05-05 15:17 | 38.72916 | -77.01617 | 2349 ft | 151 kts | 339° |
| 2026-05-05 15:17 | 38.73922 | -77.01933 | 2216 ft | 145 kts | 340° |
| 2026-05-05 15:17 | 38.74874 | -77.02241 | 2066 ft | 142 kts | 339° |
| 2026-05-05 15:17 | 38.75827 | -77.02572 | 1927 ft | 142 kts | 339° |
| 2026-05-05 15:18 | 38.76787 | -77.02847 | 1778 ft | 141 kts | 342° |
| 2026-05-05 15:18 | 38.77762 | -77.03039 | 1546 ft | 144 kts | 348° |
| 2026-05-05 15:18 | 38.78424 | -77.03102 | 1460 ft | 143 kts | 352° |
| 2026-05-05 15:18 | 38.79404 | -77.03153 | 1306 ft | 146 kts | 352° |
| 2026-05-05 15:19 | 38.80421 | -77.03246 | 1127 ft | 143 kts | 348° |
| 2026-05-05 15:19 | 38.81417 | -77.03373 | 858 ft | 145 kts | 352° |
| 2026-05-05 15:19 | 38.82408 | -77.03508 | 540 ft | 143 kts | 354° |
| 2026-05-05 15:19 | 38.83394 | -77.03603 | 240 ft | 143 kts | 355° |
| 2026-05-05 15:20 | 38.84417 | -77.03703 | 45 ft | 145 kts | 355° |
| 2026-05-05 15:20 | 38.85325 | -77.03796 | 24 ft | 100 kts | 357° |
| 2026-05-05 15:20 | 38.85638 | -77.03837 | 27 ft | 9 kts | 303° |
| 2026-05-05 15:20 | 38.85695 | -77.03943 | 26 ft | 18 kts | 289° |
| 2026-05-05 15:21 | 38.85697 | -77.03994 | 28 ft | 0 kts | 259° |
| 2026-05-05 15:21 | 38.85693 | -77.04018 | 29 ft | 10 kts | 256° |
| 2026-05-05 15:21 | 38.85735 | -77.04119 | 29 ft | 16 kts | 302° |
| 2026-05-05 15:22 | 38.85711 | -77.04263 | 27 ft | 17 kts | 253° |
| 2026-05-05 15:22 | 38.85719 | -77.04354 | 27 ft | 10 kts | 326° |
| 2026-05-05 15:22 | 38.85739 | -77.04364 | 27 ft | 0 kts | 345° |